sensor_id;sensor_type;location;lat;lon;timestamp;pressure;altitude;pressure_sealevel;temperature;humidity
29385;BME280;16367;48.736;9.218;2023-03-14T00:00:05;76453.19;;;8.98;100.00
29385;BME280;16367;48.736;9.218;2023-03-14T00:02:09;76778.16;;;8.94;100.00
29385;BME280;16367;48.736;9.218;2023-03-14T00:04:13;76781.50;;;8.97;100.00
29385;BME280;16367;48.736;9.218;2023-03-14T00:06:16;77758.34;;;8.88;100.00
29385;BME280;16367;48.736;9.218;2023-03-14T00:08:19;80720.72;;;8.84;100.00
29385;BME280;16367;48.736;9.218;2023-03-14T00:10:22;83025.47;;;8.80;100.00
29385;BME280;16367;48.736;9.218;2023-03-14T00:12:25;82375.41;;;8.87;100.00
29385;BME280;16367;48.736;9.218;2023-03-14T00:14:28;80401.97;;;8.92;100.00
29385;BME280;16367;48.736;9.218;2023-03-14T00:16:31;78417.69;;;8.88;100.00
29385;BME280;16367;48.736;9.218;2023-03-14T00:18:34;76117.69;;;8.93;100.00
29385;BME280;16367;48.736;9.218;2023-03-14T00:20:38;74796.47;;;8.91;100.00
29385;BME280;16367;48.736;9.218;2023-03-14T00:22:41;75457.97;;;8.93;100.00
29385;BME280;16367;48.736;9.218;2023-03-14T00:24:44;72165.72;;;8.94;100.00
29385;BME280;16367;48.736;9.218;2023-03-14T00:26:46;68550.66;;;8.98;100.00
29385;BME280;16367;48.736;9.218;2023-03-14T00:28:52;64604.13;;;8.97;100.00
29385;BME280;16367;48.736;9.218;2023-03-14T00:30:55;61655.22;;;9.04;100.00
29385;BME280;16367;48.736;9.218;2023-03-14T00:32:58;52141.81;;;9.03;100.00
29385;BME280;16367;48.736;9.218;2023-03-14T00:35:01;43961.00;;;9.05;100.00
29385;BME280;16367;48.736;9.218;2023-03-14T00:37:05;39712.63;;;9.04;100.00
29385;BME280;16367;48.736;9.218;2023-03-14T00:39:08;32534.72;;;9.05;100.00
29385;BME280;16367;48.736;9.218;2023-03-14T00:41:12;21793.75;;;9.11;100.00
29385;BME280;16367;48.736;9.218;2023-03-14T00:43:16;8487.22;;;9.17;100.00
29385;BME280;16367;48.736;9.218;2023-03-14T00:45:18;-8327.09;;;9.18;100.00
29385;BME280;16367;48.736;9.218;2023-03-14T00:47:21;-10261.97;;;9.13;100.00
29385;BME280;16367;48.736;9.218;2023-03-14T00:49:24;-8649.47;;;9.15;100.00
29385;BME280;16367;48.736;9.218;2023-03-14T00:51:26;-21462.13;;;9.16;100.00
29385;BME280;16367;48.736;9.218;2023-03-14T00:53:30;-23387.09;;;9.12;100.00
29385;BME280;16367;48.736;9.218;2023-03-14T00:55:36;-21731.25;;;9.09;100.00
29385;BME280;16367;48.736;9.218;2023-03-14T00:57:39;-19315.03;;;9.11;100.00
29385;BME280;16367;48.736;9.218;2023-03-14T00:59:41;-19078.28;;;9.09;100.00
29385;BME280;16367;48.736;9.218;2023-03-14T01:01:44;-14450.81;;;9.08;100.00
29385;BME280;16367;48.736;9.218;2023-03-14T01:03:49;-6067.41;;;9.05;100.00
29385;BME280;16367;48.736;9.218;2023-03-14T01:05:52;-1222.81;;;9.04;100.00
29385;BME280;16367;48.736;9.218;2023-03-14T01:07:55;-11551.34;;;9.11;100.00
29385;BME280;16367;48.736;9.218;2023-03-14T01:09:59;-14451.56;;;9.12;100.00
29385;BME280;16367;48.736;9.218;2023-03-14T01:12:02;-23457.38;;;9.14;100.00
29385;BME280;16367;48.736;9.218;2023-03-14T01:14:04;-23456.75;;;9.12;100.00
29385;BME280;16367;48.736;9.218;2023-03-14T01:16:09;-23457.06;;;9.13;100.00
29385;BME280;16367;48.736;9.218;2023-03-14T01:18:13;-23457.06;;;9.13;100.00
29385;BME280;16367;48.736;9.218;2023-03-14T01:20:16;-23457.38;;;9.14;100.00
29385;BME280;16367;48.736;9.218;2023-03-14T01:22:19;-23458.81;;;9.19;100.00
29385;BME280;16367;48.736;9.218;2023-03-14T01:24:22;-23458.97;;;9.19;100.00
29385;BME280;16367;48.736;9.218;2023-03-14T01:26:30;-23462.47;;;9.30;100.00
29385;BME280;16367;48.736;9.218;2023-03-14T01:28:33;-23461.34;;;9.27;100.00
29385;BME280;16367;48.736;9.218;2023-03-14T01:30:35;-23459.44;;;9.21;100.00
29385;BME280;16367;48.736;9.218;2023-03-14T01:32:38;-23460.25;;;9.23;100.00
29385;BME280;16367;48.736;9.218;2023-03-14T01:34:41;-23459.28;;;9.20;100.00
29385;BME280;16367;48.736;9.218;2023-03-14T01:36:44;-23459.44;;;9.21;100.00
29385;BME280;16367;48.736;9.218;2023-03-14T01:38:47;-23459.44;;;9.21;100.00
29385;BME280;16367;48.736;9.218;2023-03-14T01:40:50;-23458.03;;;9.16;100.00
29385;BME280;16367;48.736;9.218;2023-03-14T01:42:57;-23458.81;;;9.19;100.00
29385;BME280;16367;48.736;9.218;2023-03-14T01:45:01;-23456.75;;;9.12;100.00
29385;BME280;16367;48.736;9.218;2023-03-14T01:47:06;-23456.44;;;9.11;100.00
29385;BME280;16367;48.736;9.218;2023-03-14T01:49:13;-23454.84;;;9.06;100.00
29385;BME280;16367;48.736;9.218;2023-03-14T01:51:20;-23455.47;;;9.08;100.00
29385;BME280;16367;48.736;9.218;2023-03-14T01:53:24;-23457.22;;;9.14;100.00
29385;BME280;16367;48.736;9.218;2023-03-14T01:55:27;-23456.44;;;9.11;100.00
29385;BME280;16367;48.736;9.218;2023-03-14T01:57:32;-23457.38;;;9.14;100.00
29385;BME280;16367;48.736;9.218;2023-03-14T01:59:37;-23456.59;;;9.12;100.00
29385;BME280;16367;48.736;9.218;2023-03-14T02:01:43;-23456.28;;;9.11;100.00
29385;BME280;16367;48.736;9.218;2023-03-14T02:03:49;-23455.16;;;9.07;100.00
29385;BME280;16367;48.736;9.218;2023-03-14T02:05:53;-23455.97;;;9.10;100.00
29385;BME280;16367;48.736;9.218;2023-03-14T02:08:00;-23453.91;;;9.03;100.00
29385;BME280;16367;48.736;9.218;2023-03-14T02:10:04;-23452.00;;;8.97;100.00
29385;BME280;16367;48.736;9.218;2023-03-14T02:12:08;-23452.31;;;8.98;100.00
29385;BME280;16367;48.736;9.218;2023-03-14T02:14:20;-23451.50;;;8.95;100.00
29385;BME280;16367;48.736;9.218;2023-03-14T02:16:27;-23450.72;;;8.93;100.00
29385;BME280;16367;48.736;9.218;2023-03-14T02:18:30;-23452.31;;;8.98;100.00
29385;BME280;16367;48.736;9.218;2023-03-14T02:20:36;-23451.34;;;8.95;100.00
29385;BME280;16367;48.736;9.218;2023-03-14T02:22:42;-23451.03;;;8.94;100.00
29385;BME280;16367;48.736;9.218;2023-03-14T02:24:51;-23451.03;;;8.94;100.00
29385;BME280;16367;48.736;9.218;2023-03-14T02:27:06;-23451.03;;;8.94;100.00
29385;BME280;16367;48.736;9.218;2023-03-14T02:29:09;-23451.34;;;8.95;100.00
29385;BME280;16367;48.736;9.218;2023-03-14T02:31:12;-23448.97;;;8.87;100.00
29385;BME280;16367;48.736;9.218;2023-03-14T02:33:17;-23450.88;;;8.93;100.00
29385;BME280;16367;48.736;9.218;2023-03-14T02:35:22;-23449.28;;;8.88;100.00
29385;BME280;16367;48.736;9.218;2023-03-14T02:37:30;-23449.78;;;8.90;100.00
29385;BME280;16367;48.736;9.218;2023-03-14T02:39:37;-23449.59;;;8.89;100.00
29385;BME280;16367;48.736;9.218;2023-03-14T02:41:40;-23448.50;;;8.86;100.00
29385;BME280;16367;48.736;9.218;2023-03-14T02:43:45;-23447.88;;;8.84;100.00
29385;BME280;16367;48.736;9.218;2023-03-14T02:45:48;-23448.97;;;8.87;100.00
29385;BME280;16367;48.736;9.218;2023-03-14T02:47:54;-23448.03;;;8.84;100.00
29385;BME280;16367;48.736;9.218;2023-03-14T02:50:13;-23451.03;;;8.94;100.00
29385;BME280;16367;48.736;9.218;2023-03-14T02:52:16;-23450.56;;;8.92;100.00
29385;BME280;16367;48.736;9.218;2023-03-14T02:54:20;-23450.41;;;8.92;100.00
29385;BME280;16367;48.736;9.218;2023-03-14T02:56:23;-23450.09;;;8.91;100.00
29385;BME280;16367;48.736;9.218;2023-03-14T02:58:26;-23448.81;;;8.87;100.00
29385;BME280;16367;48.736;9.218;2023-03-14T03:00:30;-23446.75;;;8.80;100.00
29385;BME280;16367;48.736;9.218;2023-03-14T03:02:35;-23445.81;;;8.77;100.00
29385;BME280;16367;48.736;9.218;2023-03-14T03:04:37;-23445.97;;;8.78;100.00
29385;BME280;16367;48.736;9.218;2023-03-14T03:06:40;-23445.47;;;8.76;100.00
29385;BME280;16367;48.736;9.218;2023-03-14T03:08:43;-23445.66;;;8.77;100.00
29385;BME280;16367;48.736;9.218;2023-03-14T03:10:46;-23445.00;;;8.75;100.00
29385;BME280;16367;48.736;9.218;2023-03-14T03:12:49;-23447.22;;;8.82;100.00
29385;BME280;16367;48.736;9.218;2023-03-14T03:14:52;-23446.59;;;8.80;100.00
29385;BME280;16367;48.736;9.218;2023-03-14T03:16:56;-23448.19;;;8.85;100.00
29385;BME280;16367;48.736;9.218;2023-03-14T03:18:59;-23447.22;;;8.82;100.00
29385;BME280;16367;48.736;9.218;2023-03-14T03:21:03;-23446.13;;;8.78;100.00
29385;BME280;16367;48.736;9.218;2023-03-14T03:23:06;-23446.91;;;8.81;100.00
29385;BME280;16367;48.736;9.218;2023-03-14T03:25:09;-23445.97;;;8.78;100.00
29385;BME280;16367;48.736;9.218;2023-03-14T03:27:12;-23448.19;;;8.85;100.00
29385;BME280;16367;48.736;9.218;2023-03-14T03:29:14;-23446.59;;;8.80;100.00
29385;BME280;16367;48.736;9.218;2023-03-14T03:31:17;-23446.91;;;8.81;100.00
29385;BME280;16367;48.736;9.218;2023-03-14T03:33:22;-23447.53;;;8.83;100.00
29385;BME280;16367;48.736;9.218;2023-03-14T03:35:26;-23448.81;;;8.87;100.00
29385;BME280;16367;48.736;9.218;2023-03-14T03:37:29;-23447.22;;;8.82;100.00
29385;BME280;16367;48.736;9.218;2023-03-14T03:39:32;-23445.47;;;8.76;100.00
29385;BME280;16367;48.736;9.218;2023-03-14T03:41:35;-23446.28;;;8.79;100.00
29385;BME280;16367;48.736;9.218;2023-03-14T03:43:37;-23444.69;;;8.74;100.00
29385;BME280;16367;48.736;9.218;2023-03-14T03:45:40;-23444.69;;;8.74;100.00
29385;BME280;16367;48.736;9.218;2023-03-14T03:47:42;-23445.00;;;8.75;100.00
29385;BME280;16367;48.736;9.218;2023-03-14T03:49:46;-23443.75;;;8.71;100.00
29385;BME280;16367;48.736;9.218;2023-03-14T03:51:49;-23445.31;;;8.76;100.00
29385;BME280;16367;48.736;9.218;2023-03-14T03:53:53;-23444.69;;;8.74;100.00
29385;BME280;16367;48.736;9.218;2023-03-14T03:55:56;-23444.38;;;8.73;100.00
29385;BME280;16367;48.736;9.218;2023-03-14T03:57:58;-23443.59;;;8.70;100.00
29385;BME280;16367;48.736;9.218;2023-03-14T04:00:02;-23442.16;;;8.66;100.00
29385;BME280;16367;48.736;9.218;2023-03-14T04:02:06;-23440.88;;;8.62;100.00
29385;BME280;16367;48.736;9.218;2023-03-14T04:04:09;-23439.59;;;8.58;100.00
29385;BME280;16367;48.736;9.218;2023-03-14T04:06:13;-23440.88;;;8.62;100.00
29385;BME280;16367;48.736;9.218;2023-03-14T04:08:16;-23441.19;;;8.63;100.00
29385;BME280;16367;48.736;9.218;2023-03-14T04:10:19;-23438.34;;;8.54;100.00
29385;BME280;16367;48.736;9.218;2023-03-14T04:12:22;-23435.16;;;8.44;100.00
29385;BME280;16367;48.736;9.218;2023-03-14T04:14:24;-23436.13;;;8.47;100.00
29385;BME280;16367;48.736;9.218;2023-03-14T04:16:27;-23439.59;;;8.58;100.00
29385;BME280;16367;48.736;9.218;2023-03-14T04:18:30;-23440.56;;;8.61;100.00
29385;BME280;16367;48.736;9.218;2023-03-14T04:20:34;-23439.28;;;8.57;100.00
29385;BME280;16367;48.736;9.218;2023-03-14T04:22:38;-23437.06;;;8.50;100.00
29385;BME280;16367;48.736;9.218;2023-03-14T04:24:43;-23438.97;;;8.56;100.00
29385;BME280;16367;48.736;9.218;2023-03-14T04:26:46;-23436.59;;;8.48;100.00
29385;BME280;16367;48.736;9.218;2023-03-14T04:28:49;-23437.06;;;8.50;100.00
29385;BME280;16367;48.736;9.218;2023-03-14T04:30:52;-23439.28;;;8.57;100.00
29385;BME280;16367;48.736;9.218;2023-03-14T04:32:54;-23439.13;;;8.56;100.00
29385;BME280;16367;48.736;9.218;2023-03-14T04:34:57;-23435.81;;;8.46;100.00
29385;BME280;16367;48.736;9.218;2023-03-14T04:37:00;-23434.22;;;8.41;100.00
29385;BME280;16367;48.736;9.218;2023-03-14T04:39:04;-23435.16;;;8.44;100.00
29385;BME280;16367;48.736;9.218;2023-03-14T04:41:06;-23433.41;;;8.38;100.00
29385;BME280;16367;48.736;9.218;2023-03-14T04:43:10;-23432.63;;;8.36;100.00
29385;BME280;16367;48.736;9.218;2023-03-14T04:45:13;-23431.03;;;8.31;100.00
29385;BME280;16367;48.736;9.218;2023-03-14T04:47:15;-23433.28;;;8.38;100.00
29385;BME280;16367;48.736;9.218;2023-03-14T04:49:18;-23432.00;;;8.34;100.00
29385;BME280;16367;48.736;9.218;2023-03-14T04:51:21;-23434.22;;;8.41;100.00
29385;BME280;16367;48.736;9.218;2023-03-14T04:53:24;-23434.22;;;8.41;100.00
29385;BME280;16367;48.736;9.218;2023-03-14T04:55:28;-23434.06;;;8.40;100.00
29385;BME280;16367;48.736;9.218;2023-03-14T04:57:31;-23436.75;;;8.49;100.00
29385;BME280;16367;48.736;9.218;2023-03-14T04:59:34;-23432.63;;;8.36;100.00
29385;BME280;16367;48.736;9.218;2023-03-14T05:01:36;-23434.84;;;8.43;100.00
29385;BME280;16367;48.736;9.218;2023-03-14T05:03:45;-23433.09;;;8.37;100.00
29385;BME280;16367;48.736;9.218;2023-03-14T05:05:48;-23432.94;;;8.37;100.00
29385;BME280;16367;48.736;9.218;2023-03-14T05:07:51;-23431.34;;;8.32;100.00
29385;BME280;16367;48.736;9.218;2023-03-14T05:09:53;-23430.09;;;8.27;100.00
29385;BME280;16367;48.736;9.218;2023-03-14T05:11:57;-23431.34;;;8.32;100.00
29385;BME280;16367;48.736;9.218;2023-03-14T05:14:00;-23430.88;;;8.30;100.00
29385;BME280;16367;48.736;9.218;2023-03-14T05:16:04;-23431.03;;;8.31;100.00
29385;BME280;16367;48.736;9.218;2023-03-14T05:18:06;-23432.31;;;8.35;100.00
29385;BME280;16367;48.736;9.218;2023-03-14T05:20:10;-23429.13;;;8.24;100.00
29385;BME280;16367;48.736;9.218;2023-03-14T05:22:14;-23429.44;;;8.25;100.00
29385;BME280;16367;48.736;9.218;2023-03-14T05:24:16;-23430.09;;;8.27;100.00
29385;BME280;16367;48.736;9.218;2023-03-14T05:26:19;-23431.19;;;8.31;100.00
29385;BME280;16367;48.736;9.218;2023-03-14T05:28:23;-23429.44;;;8.25;100.00
29385;BME280;16367;48.736;9.218;2023-03-14T05:30:26;-23429.78;;;8.27;100.00
29385;BME280;16367;48.736;9.218;2023-03-14T05:32:29;-23428.81;;;8.23;100.00
29385;BME280;16367;48.736;9.218;2023-03-14T05:34:32;-23431.03;;;8.31;100.00
29385;BME280;16367;48.736;9.218;2023-03-14T05:36:35;-23431.03;;;8.31;100.00
29385;BME280;16367;48.736;9.218;2023-03-14T05:38:37;-23433.41;;;8.38;100.00
29385;BME280;16367;48.736;9.218;2023-03-14T05:40:40;-23430.72;;;8.30;100.00
29385;BME280;16367;48.736;9.218;2023-03-14T05:42:43;-23431.03;;;8.31;100.00
29385;BME280;16367;48.736;9.218;2023-03-14T05:44:47;-23432.31;;;8.35;100.00
29385;BME280;16367;48.736;9.218;2023-03-14T05:46:49;-23433.41;;;8.38;100.00
29385;BME280;16367;48.736;9.218;2023-03-14T05:48:52;-23435.34;;;8.44;100.00
29385;BME280;16367;48.736;9.218;2023-03-14T05:50:55;-23432.94;;;8.37;100.00
29385;BME280;16367;48.736;9.218;2023-03-14T05:52:58;-23435.00;;;8.43;100.00
29385;BME280;16367;48.736;9.218;2023-03-14T05:55:00;-23434.22;;;8.41;100.00
29385;BME280;16367;48.736;9.218;2023-03-14T05:57:03;-23432.94;;;8.37;100.00
29385;BME280;16367;48.736;9.218;2023-03-14T05:59:06;-23431.69;;;8.33;100.00
29385;BME280;16367;48.736;9.218;2023-03-14T06:01:11;-23430.88;;;8.30;100.00
29385;BME280;16367;48.736;9.218;2023-03-14T06:03:14;-23430.72;;;8.30;100.00
29385;BME280;16367;48.736;9.218;2023-03-14T06:05:17;-23431.34;;;8.32;100.00
29385;BME280;16367;48.736;9.218;2023-03-14T06:07:19;-23431.53;;;8.32;100.00
29385;BME280;16367;48.736;9.218;2023-03-14T06:09:22;-23430.25;;;8.28;100.00
29385;BME280;16367;48.736;9.218;2023-03-14T06:11:25;-23429.13;;;8.24;100.00
29385;BME280;16367;48.736;9.218;2023-03-14T06:13:28;-23429.28;;;8.25;100.00
29385;BME280;16367;48.736;9.218;2023-03-14T06:15:31;-23428.50;;;8.22;100.00
29385;BME280;16367;48.736;9.218;2023-03-14T06:17:35;-23431.34;;;8.32;100.00
29385;BME280;16367;48.736;9.218;2023-03-14T06:19:38;-23430.88;;;8.30;100.00
29385;BME280;16367;48.736;9.218;2023-03-14T06:21:41;-23431.69;;;8.33;100.00
29385;BME280;16367;48.736;9.218;2023-03-14T06:23:43;-23431.34;;;8.32;100.00
29385;BME280;16367;48.736;9.218;2023-03-14T06:25:46;-23430.56;;;8.29;100.00
29385;BME280;16367;48.736;9.218;2023-03-14T06:27:49;-23431.53;;;8.32;100.00
29385;BME280;16367;48.736;9.218;2023-03-14T06:29:52;-23431.03;;;8.31;100.00
29385;BME280;16367;48.736;9.218;2023-03-14T06:31:55;-23433.28;;;8.38;100.00
29385;BME280;16367;48.736;9.218;2023-03-14T06:33:59;-23435.97;;;8.46;100.00
29385;BME280;16367;48.736;9.218;2023-03-14T06:36:03;-23438.34;;;8.54;100.00
29385;BME280;16367;48.736;9.218;2023-03-14T06:38:06;-23435.97;;;8.46;100.00
29385;BME280;16367;48.736;9.218;2023-03-14T06:40:10;-23436.44;;;8.48;100.00
29385;BME280;16367;48.736;9.218;2023-03-14T06:42:15;-23436.75;;;8.49;100.00
29385;BME280;16367;48.736;9.218;2023-03-14T06:44:17;-23439.59;;;8.58;100.00
29385;BME280;16367;48.736;9.218;2023-03-14T06:46:20;-23438.97;;;8.56;100.00
29385;BME280;16367;48.736;9.218;2023-03-14T06:48:23;-23437.53;;;8.51;100.00
29385;BME280;16367;48.736;9.218;2023-03-14T06:50:27;-23437.41;;;8.51;100.00
29385;BME280;16367;48.736;9.218;2023-03-14T06:52:30;-23436.91;;;8.49;100.00
29385;BME280;16367;48.736;9.218;2023-03-14T06:54:33;-23440.25;;;8.60;100.00
29385;BME280;16367;48.736;9.218;2023-03-14T06:56:35;-23439.59;;;8.58;100.00
29385;BME280;16367;48.736;9.218;2023-03-14T06:58:38;-23441.19;;;8.63;100.00
29385;BME280;16367;48.736;9.218;2023-03-14T07:00:41;-23445.97;;;8.78;100.00
29385;BME280;16367;48.736;9.218;2023-03-14T07:02:43;-23446.44;;;8.79;100.00
29385;BME280;16367;48.736;9.218;2023-03-14T07:04:46;-23444.53;;;8.73;100.00
29385;BME280;16367;48.736;9.218;2023-03-14T07:06:50;-23445.66;;;8.77;100.00
29385;BME280;16367;48.736;9.218;2023-03-14T07:08:53;-23445.81;;;8.77;100.00
29385;BME280;16367;48.736;9.218;2023-03-14T07:10:56;-23446.13;;;8.78;100.00
29385;BME280;16367;48.736;9.218;2023-03-14T07:12:58;-23447.88;;;8.84;100.00
29385;BME280;16367;48.736;9.218;2023-03-14T07:15:01;-23452.16;;;8.97;100.00
29385;BME280;16367;48.736;9.218;2023-03-14T07:17:18;-23457.69;;;9.15;99.08
29385;BME280;16367;48.736;9.218;2023-03-14T07:19:21;-23458.97;;;9.19;98.12
29385;BME280;16367;48.736;9.218;2023-03-14T07:21:24;-23466.25;;;9.42;98.90
29385;BME280;16367;48.736;9.218;2023-03-14T07:23:28;-23461.34;;;9.27;98.68
29385;BME280;16367;48.736;9.218;2023-03-14T07:25:31;-23469.91;;;9.54;97.37
29385;BME280;16367;48.736;9.218;2023-03-14T07:27:33;-23489.72;;;10.17;92.64
29385;BME280;16367;48.736;9.218;2023-03-14T07:29:36;-23488.94;;;10.14;91.61
29385;BME280;16367;48.736;9.218;2023-03-14T07:31:38;-23511.75;;;10.87;89.52
29385;BME280;16367;48.736;9.218;2023-03-14T07:33:41;-23512.22;;;10.88;85.53
29385;BME280;16367;48.736;9.218;2023-03-14T07:35:44;-23518.56;;;11.08;84.44
29385;BME280;16367;48.736;9.218;2023-03-14T07:37:48;-23516.34;;;11.01;84.56
29385;BME280;16367;48.736;9.218;2023-03-14T07:39:52;-23523.31;;;11.23;82.81
29385;BME280;16367;48.736;9.218;2023-03-14T07:41:55;-23516.81;;;11.03;83.44
29385;BME280;16367;48.736;9.218;2023-03-14T07:44:00;-23493.22;;;10.28;88.31
29385;BME280;16367;48.736;9.218;2023-03-14T07:46:03;-23494.31;;;10.31;88.71
29385;BME280;16367;48.736;9.218;2023-03-14T07:48:06;-23522.19;;;11.20;86.25
29385;BME280;16367;48.736;9.218;2023-03-14T07:50:10;-23546.44;;;11.97;80.41
29385;BME280;16367;48.736;9.218;2023-03-14T07:52:12;-23532.19;;;11.52;80.09
29385;BME280;16367;48.736;9.218;2023-03-14T07:54:15;-23536.28;;;11.65;79.57
29385;BME280;16367;48.736;9.218;2023-03-14T07:56:22;-23554.66;;;12.23;76.90
29385;BME280;16367;48.736;9.218;2023-03-14T07:58:24;-23529.66;;;11.44;77.51
29385;BME280;16367;48.736;9.218;2023-03-14T08:00:27;-23536.78;;;11.66;77.64
29385;BME280;16367;48.736;9.218;2023-03-14T08:02:30;-23538.84;;;11.73;77.40
29385;BME280;16367;48.736;9.218;2023-03-14T08:04:32;-23517.28;;;11.04;78.79
29385;BME280;16367;48.736;9.218;2023-03-14T08:06:36;-23521.09;;;11.16;78.84
29385;BME280;16367;48.736;9.218;2023-03-14T08:08:39;-23525.53;;;11.31;78.26
29385;BME280;16367;48.736;9.218;2023-03-14T08:10:42;-23520.47;;;11.14;79.59
29385;BME280;16367;48.736;9.218;2023-03-14T08:12:46;-23512.22;;;10.88;79.75
29385;BME280;16367;48.736;9.218;2023-03-14T08:14:49;-23515.41;;;10.98;79.57
29385;BME280;16367;48.736;9.218;2023-03-14T08:16:52;-23523.00;;;11.22;79.27
29385;BME280;16367;48.736;9.218;2023-03-14T08:18:54;-23529.16;;;11.42;78.36
29385;BME280;16367;48.736;9.218;2023-03-14T08:20:57;-23511.75;;;10.87;79.65
29385;BME280;16367;48.736;9.218;2023-03-14T08:23:00;-23509.06;;;10.78;79.57
29385;BME280;16367;48.736;9.218;2023-03-14T08:25:04;-23512.06;;;10.88;79.60
29385;BME280;16367;48.736;9.218;2023-03-14T08:27:07;-23503.69;;;10.61;80.13
29385;BME280;16367;48.736;9.218;2023-03-14T08:29:12;-23510.97;;;10.84;79.58
29385;BME280;16367;48.736;9.218;2023-03-14T08:31:15;-23513.19;;;10.91;80.01
29385;BME280;16367;48.736;9.218;2023-03-14T08:33:18;-23517.13;;;11.04;79.83
29385;BME280;16367;48.736;9.218;2023-03-14T08:35:21;-23515.41;;;10.98;79.86
29385;BME280;16367;48.736;9.218;2023-03-14T08:37:23;-23524.91;;;11.29;78.25
29385;BME280;16367;48.736;9.218;2023-03-14T08:39:27;-23553.22;;;12.19;74.67
29385;BME280;16367;48.736;9.218;2023-03-14T08:41:30;-23548.31;;;12.03;73.69
29385;BME280;16367;48.736;9.218;2023-03-14T08:43:33;-23597.97;;;13.61;67.62
29385;BME280;16367;48.736;9.218;2023-03-14T08:45:37;-23587.22;;;13.27;66.19
29385;BME280;16367;48.736;9.218;2023-03-14T08:47:39;-23564.63;;;12.55;67.66
29385;BME280;16367;48.736;9.218;2023-03-14T08:49:42;-23571.09;;;12.76;68.80
29385;BME280;16367;48.736;9.218;2023-03-14T08:51:45;-23591.34;;;13.40;66.84
29385;BME280;16367;48.736;9.218;2023-03-14T08:53:47;-23587.84;;;13.29;64.17
29385;BME280;16367;48.736;9.218;2023-03-14T08:55:53;-23613.44;;;14.10;65.00
29385;BME280;16367;48.736;9.218;2023-03-14T08:57:56;-23594.81;;;13.51;64.01
29385;BME280;16367;48.736;9.218;2023-03-14T08:59:59;-23571.72;;;12.78;66.52
29385;BME280;16367;48.736;9.218;2023-03-14T09:02:03;-23580.28;;;13.05;65.54
29385;BME280;16367;48.736;9.218;2023-03-14T09:04:06;-23611.53;;;14.04;65.38
29385;BME280;16367;48.736;9.218;2023-03-14T09:06:09;-23601.44;;;13.72;64.88
29385;BME280;16367;48.736;9.218;2023-03-14T09:08:12;-23598.59;;;13.63;66.52
29385;BME280;16367;48.736;9.218;2023-03-14T09:10:15;-23581.38;;;13.08;70.05
29385;BME280;16367;48.736;9.218;2023-03-14T09:12:18;-23552.44;;;12.16;73.12
29385;BME280;16367;48.736;9.218;2023-03-14T09:14:21;-23529.00;;;11.42;78.41
29385;BME280;16367;48.736;9.218;2023-03-14T09:16:24;-23520.63;;;11.15;79.42
29385;BME280;16367;48.736;9.218;2023-03-14T09:18:28;-23512.53;;;10.89;81.04
29385;BME280;16367;48.736;9.218;2023-03-14T09:20:31;-23530.44;;;11.46;80.04
29385;BME280;16367;48.736;9.218;2023-03-14T09:22:34;-23521.88;;;11.19;83.18
29385;BME280;16367;48.736;9.218;2023-03-14T09:24:37;-23526.78;;;11.35;82.28
29385;BME280;16367;48.736;9.218;2023-03-14T09:26:40;-23540.09;;;11.77;83.74
29385;BME280;16367;48.736;9.218;2023-03-14T09:28:43;-23549.75;;;12.08;79.75
29385;BME280;16367;48.736;9.218;2023-03-14T09:30:45;-23592.13;;;13.42;74.79
29385;BME280;16367;48.736;9.218;2023-03-14T09:32:48;-23570.47;;;12.73;74.04
29385;BME280;16367;48.736;9.218;2023-03-14T09:34:52;-23570.16;;;12.72;73.46
29385;BME280;16367;48.736;9.218;2023-03-14T09:36:55;-23584.06;;;13.17;71.03
29385;BME280;16367;48.736;9.218;2023-03-14T09:38:58;-23568.88;;;12.68;72.77
29385;BME280;16367;48.736;9.218;2023-03-14T09:41:03;-23534.72;;;11.60;76.12
29385;BME280;16367;48.736;9.218;2023-03-14T09:43:14;-23540.41;;;11.78;77.35
29385;BME280;16367;48.736;9.218;2023-03-14T09:45:25;-23533.75;;;11.57;77.61
29385;BME280;16367;48.736;9.218;2023-03-14T09:47:28;-23535.97;;;11.64;77.06
29385;BME280;16367;48.736;9.218;2023-03-14T09:49:33;-23538.19;;;11.71;76.98
29385;BME280;16367;48.736;9.218;2023-03-14T09:51:38;-23532.97;;;11.54;78.18
29385;BME280;16367;48.736;9.218;2023-03-14T09:53:43;-23536.59;;;11.66;77.97
29385;BME280;16367;48.736;9.218;2023-03-14T09:55:49;-23534.72;;;11.60;78.54
29385;BME280;16367;48.736;9.218;2023-03-14T09:57:56;-23530.91;;;11.48;78.93
29385;BME280;16367;48.736;9.218;2023-03-14T10:00:03;-23527.91;;;11.38;78.32
29385;BME280;16367;48.736;9.218;2023-03-14T10:02:17;-23538.50;;;11.72;77.90
29385;BME280;16367;48.736;9.218;2023-03-14T10:04:22;-23534.06;;;11.58;77.88
29385;BME280;16367;48.736;9.218;2023-03-14T10:06:27;-23528.84;;;11.41;76.50
29385;BME280;16367;48.736;9.218;2023-03-14T10:08:32;-23520.47;;;11.14;77.81
29385;BME280;16367;48.736;9.218;2023-03-14T10:10:34;-23554.66;;;12.23;73.29
29385;BME280;16367;48.736;9.218;2023-03-14T10:12:37;-23597.00;;;13.58;68.66
29385;BME280;16367;48.736;9.218;2023-03-14T10:14:49;-23599.69;;;13.67;68.40
29385;BME280;16367;48.736;9.218;2023-03-14T10:16:52;-23611.88;;;14.05;65.49
29385;BME280;16367;48.736;9.218;2023-03-14T10:19:02;-23604.59;;;13.82;67.62
29385;BME280;16367;48.736;9.218;2023-03-14T10:21:16;-23602.69;;;13.76;66.73
29385;BME280;16367;48.736;9.218;2023-03-14T10:23:26;-23619.13;;;14.29;66.85
29385;BME280;16367;48.736;9.218;2023-03-14T10:25:32;-23635.69;;;14.81;63.88
29385;BME280;16367;48.736;9.218;2023-03-14T10:27:36;-23612.81;;;14.08;64.41
29385;BME280;16367;48.736;9.218;2023-03-14T10:29:52;-23601.59;;;13.73;65.52
29385;BME280;16367;48.736;9.218;2023-03-14T10:31:58;-23577.25;;;12.95;69.07
29385;BME280;16367;48.736;9.218;2023-03-14T10:34:04;-23566.81;;;12.62;71.58
29385;BME280;16367;48.736;9.218;2023-03-14T10:36:17;-23565.09;;;12.56;72.24
29385;BME280;16367;48.736;9.218;2023-03-14T10:38:23;-23558.75;;;12.36;73.12
29385;BME280;16367;48.736;9.218;2023-03-14T10:40:30;-23564.78;;;12.55;72.27
29385;BME280;16367;48.736;9.218;2023-03-14T10:42:39;-23565.41;;;12.57;70.89
29385;BME280;16367;48.736;9.218;2023-03-14T10:44:50;-23553.06;;;12.18;72.61
29385;BME280;16367;48.736;9.218;2023-03-14T10:47:00;-23547.06;;;11.99;73.02